createdAt,value
2022-10-23T00:01:46.564Z,6.35
2022-10-23T00:04:20.352Z,6.35
2022-10-23T00:06:48.262Z,6.00
2022-10-23T00:09:17.778Z,5.80
2022-10-23T00:11:47.889Z,6.53
2022-10-23T00:14:16.736Z,6.70
2022-10-23T00:16:43.657Z,5.80
2022-10-23T00:19:10.796Z,5.43
2022-10-23T00:21:37.599Z,4.60
2022-10-23T00:24:04.702Z,4.63
2022-10-23T00:26:31.769Z,4.60
2022-10-23T00:28:58.508Z,4.93
2022-10-23T00:31:25.481Z,4.47
2022-10-23T00:33:52.841Z,4.68
2022-10-23T00:36:21.304Z,4.60
2022-10-23T00:38:48.782Z,4.00
2022-10-23T00:41:23.728Z,4.15
2022-10-23T00:43:59.300Z,3.75
2022-10-23T00:46:26.733Z,4.07
2022-10-23T00:48:53.484Z,3.97
2022-10-23T00:51:20.312Z,5.25
2022-10-23T00:54:00.991Z,3.90
2022-10-23T00:56:39.226Z,3.75
2022-10-23T00:59:06.076Z,4.00
2022-10-23T01:01:33.068Z,4.65
2022-10-23T01:04:01.932Z,4.78
2022-10-23T01:06:54.074Z,4.00
2022-10-23T01:09:23.724Z,5.32
2022-10-23T01:12:00.207Z,7.45
2022-10-23T01:14:55.719Z,5.78
2022-10-23T01:17:44.855Z,4.60
2022-10-23T01:20:30.307Z,4.15
2022-10-23T01:23:21.738Z,3.97
2022-10-23T01:26:06.928Z,4.25
2022-10-23T01:28:36.373Z,4.38
2022-10-23T01:31:08.474Z,5.55
2022-10-23T01:33:58.469Z,4.07
2022-10-23T01:36:28.853Z,4.25
2022-10-23T01:39:08.348Z,3.70
2022-10-23T01:41:47.549Z,4.22
2022-10-23T01:44:46.558Z,4.03
2022-10-23T01:47:15.841Z,5.38
2022-10-23T01:49:43.664Z,4.97
2022-10-23T01:52:13.773Z,5.88
2022-10-23T01:54:44.789Z,7.13
2022-10-23T01:57:15.762Z,9.35
2022-10-23T01:59:47.479Z,10.20
2022-10-23T02:02:15.825Z,9.93
2022-10-23T02:05:01.765Z,10.32
2022-10-23T02:07:28.695Z,7.63
2022-10-23T02:09:55.559Z,6.57
2022-10-23T02:12:58.853Z,5.47
2022-10-23T02:15:41.362Z,4.47
2022-10-23T02:18:34.393Z,4.45
2022-10-23T02:21:09.258Z,4.57
2022-10-23T02:23:41.571Z,4.45
2022-10-23T02:26:11.551Z,5.13
2022-10-23T02:28:43.384Z,4.35
2022-10-23T02:31:14.412Z,4.03
2022-10-23T02:33:41.412Z,4.07
2022-10-23T02:36:08.971Z,3.70
2022-10-23T02:38:43.946Z,3.45
2022-10-23T02:41:38.644Z,3.92
2022-10-23T02:44:13.264Z,3.08
2022-10-23T02:46:39.917Z,3.10
2022-10-23T02:49:19.373Z,2.90
2022-10-23T02:51:48.994Z,2.95
2022-10-23T02:54:19.827Z,3.78
2022-10-23T02:56:52.836Z,3.10
2022-10-23T02:59:27.419Z,2.80
2022-10-23T03:02:14.460Z,3.40
2022-10-23T03:04:44.067Z,3.78
2022-10-23T03:07:15.010Z,3.00
2022-10-23T03:09:41.729Z,3.53
2022-10-23T03:12:08.527Z,2.90
2022-10-23T03:14:35.311Z,2.88
2022-10-23T03:17:02.017Z,5.03
2022-10-23T03:19:28.705Z,3.38
2022-10-23T03:21:55.517Z,3.00
2022-10-23T03:24:22.190Z,4.10
2022-10-23T03:26:48.925Z,2.55
2022-10-23T03:29:15.711Z,2.80
2022-10-23T03:31:42.619Z,3.08
2022-10-23T03:34:11.200Z,2.90
2022-10-23T03:36:38.476Z,2.92
2022-10-23T03:39:05.331Z,3.47
2022-10-23T03:41:32.616Z,3.13
2022-10-23T03:43:59.747Z,2.65
2022-10-23T03:46:26.534Z,3.17
2022-10-23T03:48:53.241Z,2.60
2022-10-23T03:51:19.963Z,2.80
2022-10-23T03:53:46.620Z,2.63
2022-10-23T03:56:13.308Z,2.60
2022-10-23T03:58:40.277Z,3.10
2022-10-23T04:01:07.182Z,3.42
2022-10-23T04:03:33.901Z,3.00
2022-10-23T04:06:00.735Z,3.80
2022-10-23T04:08:27.449Z,2.50
2022-10-23T04:10:55.091Z,3.08
2022-10-23T04:13:21.811Z,3.05
2022-10-23T04:15:52.536Z,2.65
2022-10-23T04:18:20.370Z,2.92
2022-10-23T04:20:50.815Z,2.90
2022-10-23T04:23:18.155Z,2.95
2022-10-23T04:25:44.937Z,2.83
2022-10-23T04:28:11.980Z,2.75
2022-10-23T04:30:38.817Z,2.78
2022-10-23T04:33:05.459Z,2.92
2022-10-23T04:35:32.248Z,3.17
2022-10-23T04:37:58.986Z,3.53
2022-10-23T04:40:25.832Z,3.40
2022-10-23T04:42:52.586Z,3.60
2022-10-23T04:45:19.273Z,3.45
2022-10-23T04:47:46.136Z,3.60
2022-10-23T04:50:12.905Z,4.00
2022-10-23T04:52:39.710Z,3.67
2022-10-23T04:55:08.250Z,3.83
2022-10-23T04:57:34.980Z,4.20
2022-10-23T05:00:01.971Z,3.78
2022-10-23T05:02:28.693Z,3.92
2022-10-23T05:04:55.424Z,3.63
2022-10-23T05:09:53.719Z,3.08
2022-10-23T05:12:20.813Z,3.20
2022-10-23T05:14:47.526Z,3.58
2022-10-23T05:17:20.575Z,3.92
2022-10-23T05:19:53.507Z,4.15
2022-10-23T05:22:22.573Z,3.25
2022-10-23T05:24:50.605Z,3.42
2022-10-23T05:27:17.668Z,3.55
2022-10-23T05:29:44.342Z,3.65
2022-10-23T05:32:14.541Z,3.60
2022-10-23T05:34:42.413Z,3.03
2022-10-23T05:37:14.083Z,2.88
2022-10-23T05:39:40.948Z,3.03
2022-10-23T05:42:07.735Z,3.25
2022-10-23T05:44:35.372Z,3.50
2022-10-23T05:47:02.186Z,2.97
2022-10-23T05:49:28.904Z,2.85
2022-10-23T05:51:55.652Z,3.22
2022-10-23T05:54:22.333Z,3.13
2022-10-23T05:56:49.067Z,3.47
2022-10-23T05:59:20.331Z,3.20
2022-10-23T06:01:48.982Z,3.30
2022-10-23T06:04:15.811Z,3.20
2022-10-23T06:06:44.566Z,3.22
2022-10-23T06:09:11.290Z,3.17
2022-10-23T06:11:38.194Z,3.13
2022-10-23T06:14:04.854Z,3.42
2022-10-23T06:16:31.554Z,3.85
2022-10-23T06:18:58.268Z,3.70
2022-10-23T06:21:25.104Z,3.35
2022-10-23T06:23:51.935Z,4.85
2022-10-23T06:26:20.241Z,3.92
2022-10-23T06:28:47.038Z,4.18
2022-10-23T06:31:16.151Z,4.15
2022-10-23T06:33:42.868Z,4.07
2022-10-23T06:36:10.561Z,3.38
2022-10-23T06:38:40.621Z,3.25
2022-10-23T06:41:13.682Z,3.67
2022-10-23T06:43:40.639Z,3.28
2022-10-23T06:46:07.699Z,3.90
2022-10-23T06:48:34.417Z,4.00
2022-10-23T06:51:06.461Z,3.80
2022-10-23T06:53:33.523Z,4.32
2022-10-23T06:56:01.718Z,4.18
2022-10-23T06:58:29.126Z,5.07
2022-10-23T07:00:56.462Z,4.20
2022-10-23T07:03:23.370Z,4.07
2022-10-23T07:05:50.162Z,5.00
2022-10-23T07:08:16.951Z,4.53
2022-10-23T07:10:43.727Z,4.28
2022-10-23T07:13:11.931Z,5.03
2022-10-23T07:15:39.599Z,4.72
2022-10-23T07:18:06.887Z,5.60
2022-10-23T07:20:33.800Z,4.90
2022-10-23T07:23:00.837Z,4.45
2022-10-23T07:25:27.663Z,4.10
2022-10-23T07:27:56.439Z,3.90
2022-10-23T07:30:24.211Z,3.65
2022-10-23T07:32:51.163Z,3.90
2022-10-23T07:35:18.695Z,3.72
2022-10-23T07:37:45.855Z,3.60
2022-10-23T07:40:12.773Z,3.90
2022-10-23T07:42:39.584Z,3.53
2022-10-23T07:45:08.637Z,3.58
2022-10-23T07:47:35.312Z,3.42
2022-10-23T07:50:02.097Z,3.83
2022-10-23T07:52:32.046Z,4.47
2022-10-23T07:55:02.049Z,6.93
2022-10-23T07:57:28.707Z,5.88
2022-10-23T07:59:55.436Z,4.03
2022-10-23T08:02:22.218Z,3.60
2022-10-23T08:04:50.261Z,3.20
2022-10-23T08:07:17.096Z,4.00
2022-10-23T08:09:43.811Z,4.85
2022-10-23T08:12:10.613Z,4.05
2022-10-23T08:14:37.564Z,4.85
2022-10-23T08:17:05.461Z,4.55
2022-10-23T08:19:32.549Z,4.18
2022-10-23T08:21:59.219Z,4.20
2022-10-23T08:24:25.933Z,3.83
2022-10-23T08:26:52.602Z,3.67
2022-10-23T08:29:19.287Z,3.35
2022-10-23T08:31:46.279Z,3.90
2022-10-23T08:34:13.552Z,3.67
2022-10-23T08:36:40.409Z,3.40
2022-10-23T08:39:07.923Z,3.88
2022-10-23T08:41:38.041Z,4.72
2022-10-23T08:44:12.860Z,4.10
2022-10-23T08:46:44.881Z,6.63
2022-10-23T08:49:42.506Z,6.55
2022-10-23T08:52:14.878Z,8.50
2022-10-23T08:55:02.414Z,4.15
2022-10-23T08:57:37.746Z,4.85
2022-10-23T09:00:20.778Z,4.40
2022-10-23T09:02:50.697Z,10.85
2022-10-23T09:05:28.867Z,12.55
2022-10-23T09:08:01.715Z,5.43
2022-10-23T09:10:52.351Z,4.43
2022-10-23T09:13:39.842Z,4.18
2022-10-23T09:16:38.990Z,3.83
2022-10-23T09:19:27.052Z,4.80
2022-10-23T09:21:55.766Z,5.18
2022-10-23T09:24:24.878Z,4.97
2022-10-23T09:26:53.860Z,3.97
2022-10-23T09:29:35.862Z,3.55
2022-10-23T09:32:05.408Z,3.47
2022-10-23T09:34:34.162Z,3.33
2022-10-23T09:37:03.517Z,4.10
2022-10-23T09:39:32.204Z,3.50
2022-10-23T09:42:02.550Z,4.53
2022-10-23T09:44:32.619Z,4.38
2022-10-23T09:47:21.064Z,4.57
2022-10-23T09:49:50.765Z,6.05
2022-10-23T09:52:17.744Z,6.10
2022-10-23T09:54:48.688Z,5.03
2022-10-23T09:57:39.377Z,4.82
2022-10-23T10:00:25.400Z,3.97
2022-10-23T10:03:02.020Z,5.40
2022-10-23T10:05:28.776Z,4.40
2022-10-23T10:08:17.770Z,4.32
2022-10-23T10:10:51.431Z,3.78
2022-10-23T10:13:48.196Z,3.25
2022-10-23T10:16:48.340Z,3.60
2022-10-23T10:19:23.658Z,3.90
2022-10-23T10:22:04.724Z,3.20
2022-10-23T10:24:40.005Z,5.63
2022-10-23T10:27:32.557Z,4.37
2022-10-23T10:30:18.963Z,5.10
2022-10-23T10:33:05.889Z,6.35
2022-10-23T10:36:00.558Z,5.88
2022-10-23T10:38:50.163Z,6.25
2022-10-23T10:41:28.249Z,4.90
2022-10-23T10:44:04.726Z,6.05
2022-10-23T10:46:44.206Z,4.80
2022-10-23T10:49:19.634Z,3.72
2022-10-23T10:52:01.454Z,3.40
2022-10-23T10:54:49.711Z,3.58
2022-10-23T10:57:31.742Z,2.80
2022-10-23T11:00:03.398Z,3.15
2022-10-23T11:02:43.349Z,2.92
2022-10-23T11:05:10.001Z,2.53
2022-10-23T11:07:52.359Z,2.28
2022-10-23T11:10:19.759Z,3.28
2022-10-23T11:12:47.913Z,3.38
2022-10-23T11:15:36.068Z,2.22
2022-10-23T11:18:11.989Z,3.30
2022-10-23T11:21:08.216Z,3.53
2022-10-23T11:24:02.180Z,2.65
2022-10-23T11:26:46.779Z,2.65
2022-10-23T11:29:28.610Z,2.60
2022-10-23T11:32:01.163Z,3.28
2022-10-23T11:35:07.102Z,1.80
2022-10-23T11:37:34.272Z,5.28
2022-10-23T11:40:19.464Z,3.70
2022-10-23T11:42:49.294Z,2.20
2022-10-23T11:45:29.643Z,2.83
2022-10-23T11:48:01.228Z,2.20
2022-10-23T11:50:33.141Z,3.47
2022-10-23T11:53:23.271Z,3.17
2022-10-23T11:56:19.586Z,1.40
2022-10-23T11:58:50.367Z,1.80
2022-10-23T12:01:24.320Z,1.40
2022-10-23T12:04:15.027Z,1.27
2022-10-23T12:06:47.641Z,1.00
2022-10-23T12:09:25.580Z,1.55
2022-10-23T12:12:07.147Z,0.93
2022-10-23T12:14:35.724Z,1.80
2022-10-23T12:17:03.629Z,1.10
2022-10-23T12:19:47.373Z,1.30
2022-10-23T12:22:14.421Z,1.30
2022-10-23T12:24:53.672Z,1.15
2022-10-23T12:27:42.082Z,1.85
2022-10-23T12:30:43.987Z,1.45
2022-10-23T12:33:22.538Z,1.48
2022-10-23T12:36:19.803Z,1.55
2022-10-23T12:38:49.647Z,1.88
2022-10-23T12:41:30.708Z,1.23
2022-10-23T12:44:02.857Z,1.40
2022-10-23T12:46:49.989Z,1.52
2022-10-23T12:49:22.524Z,1.45
2022-10-23T12:52:19.534Z,1.30
2022-10-23T12:57:24.045Z,1.00
2022-10-23T12:59:55.238Z,1.42
2022-10-23T13:02:27.818Z,1.35
2022-10-23T13:04:57.403Z,1.02
2022-10-23T13:07:29.841Z,2.10
2022-10-23T13:09:58.075Z,4.07
2022-10-23T13:12:30.784Z,2.00
2022-10-23T13:15:09.025Z,1.90
2022-10-23T13:17:40.779Z,2.75
2022-10-23T13:20:22.904Z,1.65
2022-10-23T13:23:08.037Z,2.60
2022-10-23T13:25:36.635Z,2.15
2022-10-23T13:28:11.953Z,1.65
2022-10-23T13:31:05.394Z,2.45
2022-10-23T13:33:50.997Z,1.33
2022-10-23T13:36:17.631Z,1.70
2022-10-23T13:39:04.548Z,1.42
2022-10-23T13:41:40.874Z,1.40
2022-10-23T13:44:09.489Z,1.33
2022-10-23T13:46:36.153Z,1.40
2022-10-23T13:49:02.871Z,1.38
2022-10-23T13:51:33.475Z,1.10
2022-10-23T13:54:00.192Z,1.13
2022-10-23T13:56:28.261Z,1.10
2022-10-23T13:58:54.994Z,1.10
2022-10-23T14:01:31.634Z,1.55
2022-10-23T14:03:59.178Z,0.98
2022-10-23T14:06:26.095Z,1.17
2022-10-23T14:08:52.781Z,1.42
2022-10-23T14:11:20.429Z,1.10
2022-10-23T14:13:48.332Z,1.20
2022-10-23T14:16:17.615Z,1.00
2022-10-23T14:18:44.424Z,1.38
2022-10-23T14:21:15.149Z,1.20
2022-10-23T14:23:42.231Z,1.27
2022-10-23T14:26:12.325Z,1.50
2022-10-23T14:28:39.393Z,1.50
2022-10-23T14:31:08.731Z,1.23
2022-10-23T14:33:35.684Z,1.23
2022-10-23T14:36:02.548Z,1.58
2022-10-23T14:38:29.605Z,1.30
2022-10-23T14:40:56.525Z,1.23
2022-10-23T14:43:24.162Z,1.35
2022-10-23T14:45:50.855Z,1.17
2022-10-23T14:48:17.907Z,1.25
2022-10-23T14:50:47.202Z,1.30
2022-10-23T14:53:14.748Z,1.27
2022-10-23T14:55:41.577Z,1.40
2022-10-23T14:58:08.405Z,1.33
2022-10-23T15:00:35.156Z,2.25
2022-10-23T15:03:01.950Z,2.65
2022-10-23T15:05:28.687Z,2.45
2022-10-23T15:07:56.452Z,1.48
2022-10-23T15:10:23.209Z,1.63
2022-10-23T15:12:49.879Z,1.77
2022-10-23T15:15:16.674Z,6.40
2022-10-23T15:17:43.857Z,6.03
2022-10-23T15:20:10.838Z,13.30
2022-10-23T15:22:37.633Z,4.80
2022-10-23T15:25:04.916Z,1.98
2022-10-23T15:27:31.648Z,3.92
2022-10-23T15:29:58.352Z,3.20
2022-10-23T15:32:25.208Z,3.13
2022-10-23T15:34:53.682Z,3.05
2022-10-23T15:37:20.445Z,2.92
2022-10-23T15:39:47.345Z,2.13
2022-10-23T15:42:14.196Z,4.80
2022-10-23T15:44:41.347Z,6.13
2022-10-23T15:47:08.093Z,4.07
2022-10-23T15:49:35.284Z,2.63
2022-10-23T15:52:03.315Z,2.85
2022-10-23T15:54:32.767Z,1.88
2022-10-23T15:57:00.847Z,2.28
2022-10-23T15:59:29.282Z,2.13
2022-10-23T16:01:57.413Z,2.10
2022-10-23T16:04:24.635Z,1.80
2022-10-23T16:06:51.341Z,1.90
2022-10-23T16:09:18.216Z,2.22
2022-10-23T16:11:45.016Z,2.83
2022-10-23T16:14:16.498Z,3.67
2022-10-23T16:16:43.936Z,2.45
2022-10-23T16:19:11.833Z,2.10
2022-10-23T16:21:38.545Z,2.42
2022-10-23T16:24:07.555Z,2.55
2022-10-23T16:26:35.357Z,2.55
2022-10-23T16:29:05.370Z,4.68
2022-10-23T16:31:32.641Z,3.35
2022-10-23T16:34:00.960Z,2.88
2022-10-23T16:36:28.276Z,3.83
2022-10-23T16:38:55.087Z,2.53
2022-10-23T16:41:21.837Z,3.72
2022-10-23T16:43:48.614Z,3.70
2022-10-23T16:46:18.740Z,3.38
2022-10-23T16:48:45.731Z,3.03
2022-10-23T16:51:15.078Z,3.33
2022-10-23T16:53:43.055Z,4.18
2022-10-23T16:56:11.859Z,2.95
2022-10-23T16:58:40.916Z,2.95
2022-10-23T17:01:10.270Z,2.97
2022-10-23T17:03:39.553Z,2.90
2022-10-23T17:06:11.082Z,3.67
2022-10-23T17:08:38.742Z,2.75
2022-10-23T17:11:11.305Z,2.65
2022-10-23T17:13:41.131Z,3.45
2022-10-23T17:16:17.066Z,3.17
2022-10-23T17:18:44.282Z,3.00
2022-10-23T17:21:12.792Z,3.72
2022-10-23T17:23:40.073Z,2.80
2022-10-23T17:26:12.246Z,4.03
2022-10-23T17:28:42.198Z,3.22
2022-10-23T17:31:11.982Z,3.30
2022-10-23T17:33:39.398Z,3.63
2022-10-23T17:36:06.472Z,3.92
2022-10-23T17:38:35.741Z,3.88
2022-10-23T17:41:02.642Z,4.40
2022-10-23T17:43:29.372Z,3.55
2022-10-23T17:45:56.104Z,2.97
2022-10-23T17:48:22.812Z,3.72
2022-10-23T17:50:49.549Z,4.10
2022-10-23T17:53:16.231Z,3.47
2022-10-23T17:55:42.967Z,4.85
2022-10-23T17:58:09.741Z,4.55
2022-10-23T18:00:37.105Z,3.78
2022-10-23T18:03:04.562Z,3.45
2022-10-23T18:05:33.261Z,3.13
2022-10-23T18:08:00.356Z,3.42
2022-10-23T18:10:27.129Z,3.03
2022-10-23T18:12:54.288Z,3.65
2022-10-23T18:15:21.090Z,3.78
2022-10-23T18:17:47.780Z,4.20
2022-10-23T18:20:15.679Z,3.35
2022-10-23T18:22:42.774Z,3.78
2022-10-23T18:25:10.061Z,3.97
2022-10-23T18:27:36.860Z,3.58
2022-10-23T18:30:04.292Z,3.30
2022-10-23T18:32:31.052Z,3.33
2022-10-23T18:34:58.012Z,3.55
2022-10-23T18:37:26.794Z,3.80
2022-10-23T18:39:55.520Z,4.35
2022-10-23T18:42:22.262Z,3.55
2022-10-23T18:44:50.052Z,3.78
2022-10-23T18:49:44.373Z,3.15
2022-10-23T18:52:11.487Z,3.72
2022-10-23T18:54:38.280Z,3.47
2022-10-23T18:57:05.101Z,3.70
2022-10-23T18:59:31.784Z,3.78
2022-10-23T19:01:58.674Z,3.58
2022-10-23T19:04:25.557Z,3.90
2022-10-23T19:06:52.838Z,3.92
2022-10-23T19:09:19.951Z,3.75
2022-10-23T19:11:46.975Z,3.72
2022-10-23T19:14:13.868Z,3.90
2022-10-23T19:16:51.235Z,3.88
2022-10-23T19:19:28.125Z,3.58
2022-10-23T19:21:55.695Z,3.60
2022-10-23T19:24:29.446Z,3.70
2022-10-23T19:26:58.475Z,10.95
2022-10-23T19:29:26.654Z,5.93
2022-10-23T19:31:54.059Z,5.38
2022-10-23T19:34:24.621Z,5.65
2022-10-23T19:36:53.212Z,5.00
2022-10-23T19:39:20.286Z,5.72
2022-10-23T19:41:47.149Z,6.03
2022-10-23T19:44:14.634Z,5.20
2022-10-23T19:46:41.352Z,4.85
2022-10-23T19:49:09.158Z,4.05
2022-10-23T19:51:36.373Z,4.25
2022-10-23T19:54:03.666Z,4.22
2022-10-23T19:56:30.487Z,5.10
2022-10-23T19:58:57.207Z,4.28
2022-10-23T20:01:25.187Z,4.00
2022-10-23T20:03:52.506Z,4.60
2022-10-23T20:06:22.079Z,4.57
2022-10-23T20:08:49.307Z,4.53
2022-10-23T20:11:28.378Z,4.55
2022-10-23T20:13:55.564Z,4.30
2022-10-23T20:16:28.852Z,4.93
2022-10-23T20:18:56.322Z,4.38
2022-10-23T20:21:23.696Z,4.38
2022-10-23T20:23:50.809Z,4.72
2022-10-23T20:26:21.201Z,5.43
2022-10-23T20:28:51.266Z,5.35
2022-10-23T20:31:19.619Z,4.65
2022-10-23T20:33:46.593Z,5.57
2022-10-23T20:36:26.956Z,5.00
2022-10-23T20:38:54.418Z,4.22
2022-10-23T20:41:22.022Z,5.60
2022-10-23T20:43:48.946Z,5.13
2022-10-23T20:46:15.740Z,5.57
2022-10-23T20:48:43.943Z,4.57
2022-10-23T20:51:14.472Z,3.78
2022-10-23T20:53:42.233Z,5.00
2022-10-23T20:56:23.200Z,4.18
2022-10-23T20:58:50.260Z,4.60
2022-10-23T21:01:17.928Z,4.10
2022-10-23T21:03:50.135Z,3.95
2022-10-23T21:06:17.869Z,5.15
2022-10-23T21:08:44.861Z,5.53
2022-10-23T21:11:13.991Z,5.65
2022-10-23T21:13:42.761Z,3.53
2022-10-23T21:16:14.692Z,3.63
2022-10-23T21:18:45.955Z,4.15
2022-10-23T21:21:19.338Z,3.28
2022-10-23T21:23:51.720Z,4.20
2022-10-23T21:26:22.690Z,4.35
2022-10-23T21:28:56.276Z,4.38
2022-10-23T21:31:38.586Z,3.80
2022-10-23T21:34:05.655Z,3.65
2022-10-23T21:36:34.314Z,4.35
2022-10-23T21:39:06.748Z,4.57
2022-10-23T21:41:34.516Z,5.22
2022-10-23T21:44:05.475Z,4.55
2022-10-23T21:46:34.502Z,5.78
2022-10-23T21:49:01.624Z,4.82
2022-10-23T21:51:35.668Z,5.30
2022-10-23T21:54:03.126Z,5.80
2022-10-23T21:56:29.773Z,6.50
2022-10-23T21:58:57.851Z,5.88
2022-10-23T22:01:24.911Z,7.28
2022-10-23T22:03:52.114Z,6.70
2022-10-23T22:06:22.058Z,4.95
2022-10-23T22:08:49.210Z,5.75
2022-10-23T22:11:16.137Z,4.28
2022-10-23T22:13:43.834Z,5.20
2022-10-23T22:16:11.328Z,5.43
2022-10-23T22:18:38.146Z,5.72
2022-10-23T22:21:08.077Z,4.57
2022-10-23T22:23:35.489Z,5.63
2022-10-23T22:26:17.767Z,5.00
2022-10-23T22:28:44.574Z,4.18
2022-10-23T22:31:16.913Z,5.15
2022-10-23T22:33:44.144Z,5.53
2022-10-23T22:36:11.506Z,4.97
2022-10-23T22:38:39.226Z,5.18
2022-10-23T22:41:06.541Z,5.40
2022-10-23T22:43:33.286Z,5.15
2022-10-23T22:46:07.437Z,6.30
2022-10-23T22:48:35.198Z,5.60
2022-10-23T22:51:02.097Z,5.53
2022-10-23T22:53:29.572Z,5.95
2022-10-23T22:55:56.810Z,4.90
2022-10-23T22:58:25.012Z,4.50
2022-10-23T23:00:53.590Z,5.03
2022-10-23T23:03:20.325Z,5.93
2022-10-23T23:05:48.411Z,5.05
2022-10-23T23:08:15.569Z,5.25
2022-10-23T23:10:42.238Z,4.80
2022-10-23T23:13:08.985Z,5.10
2022-10-23T23:15:41.062Z,4.15
2022-10-23T23:18:07.993Z,4.57
2022-10-23T23:20:35.120Z,5.13
2022-10-23T23:23:01.976Z,4.80
2022-10-23T23:25:29.053Z,5.20
2022-10-23T23:27:56.277Z,5.43
2022-10-23T23:30:23.549Z,5.50
2022-10-23T23:32:51.422Z,4.95
2022-10-23T23:35:20.170Z,4.70
2022-10-23T23:37:47.104Z,5.93
2022-10-23T23:40:14.297Z,5.15
2022-10-23T23:42:41.045Z,4.60
2022-10-23T23:45:14.663Z,4.75
2022-10-23T23:47:42.108Z,5.45
2022-10-23T23:50:10.215Z,5.78
2022-10-23T23:52:36.997Z,4.75
2022-10-23T23:55:04.034Z,5.00
2022-10-23T23:57:30.765Z,4.70
2022-10-23T23:59:57.708Z,5.10
